Aérodrome :
LOGIN :

S'inscrire | Disclaimer

   EN    FR    IT 

 










Légende :    VFR   VFR Marginal   IFR   IFR Intensif   IFR Très Intensif
Visi : 
Plafond : 
>= 8 km
>= 3000ft
5 à 8 km
1000 à 3000 ft
1500m à 5 km
500 à 1000 ft
800 à 1500m
200 à 500 ft
< 800m
< 200 ft
Symboles :   Orages  Brouillard  Fortes neiges  Fortes précipitations  Vent > 20 kt
SIGMETs :   Divers  Orages  Givrage  Turbulence  Onde Orograph.  Cendres Volcan.







- Altitude de l'aérodrome : 231 ft
- Code IATA : WTN


EGXW - RAF Waddington

DERNIER METAR :
  • 201950Z 33002KT CAVOK 15/07 Q1024 NOSIG RMK BLU BLU

METARs EXPIRÉS :
  • 201920Z 30003KT CAVOK 16/07 Q1024 NOSIG RMK BLU BLU
  • 201850Z 30004KT CAVOK 16/07 Q1023 NOSIG RMK BLU BLU
  • 201819Z 30005KT CAVOK 17/08 Q1023 NOSIG RMK BLU BLU
  • 201750Z 28007KT CAVOK 17/07 Q1023 NOSIG RMK BLU BLU
  • 201720Z 29009KT CAVOK 18/07 Q1023 NOSIG RMK BLU BLU

TAF TAF EGXW
Valide du 20 à 18h jusqu'au 21 à 12h UTC


201642Z 2018/2112 28010KT 9999 FEW045
PROB30
TEMPO 2023/2103 SCT022
Pas de NOTAMs connus pour ce terrain.



MET'MAP, la Météo Aéronautique d'un coup d'oeil ! - Copyright ORBIFLY Décembre 2007 - Disclaimer

ORBIFLY MET'MAP TEAM :

Programmation & Développement : Alexandra Zaïnal
Conception & Développement : Baudouin d'Aumeries
Co-Programmation & Développement : Marc-Olivier Méhu
Soutien technique & logistique : Manuel Goepfert

Contact : metmap@orbifly.com




SOURCES & CREDITS :

   NOAA